Weather at Heritage Airport

Public forecast

Using degrees Fahrenheit for public forecast. Weather courtesy of forecast.io.

Closest aviation weather report (METAR) to Heritage Airport

Closest report is Henderson Executive Airport, 26.9 nm (49.9 km) ENE. Retrieved 2021/06/25 03:03 UTC (9 minutes ago):

KHND 250303Z AUTO 17011KT 10SM VCTS CLR 29/12 A2991 RMK AO2 TSB0257

Closest aviation forecast (TAF) to Heritage Airport

Closest forecast is Henderson Executive Airport, 26.9 nm (49.9 km) ENE. Retrieved 2021-06-25 00:22 UTC (3 hours ago):

TAF KHND 242320Z 2500/2524 17011KT P6SM SCT100 FM250400 19008KT P6SM SKC FM251800 VRB05KT P6SM SKC